Time;durP1;ratioP1;P1;durP2;ratioP2;P2;SDS_P1;SDS_P2;PMS_P1;PMS_P2;Temp;Humidity;BMP_temperature;BMP_pressure;BME280_temperature;BME280_humidity;BME280_pressure;Samples;Min_cycle;Max_cycle;Signal;HPM_P1;HPM_P2
2022/05/14 00:00:30;;;;;;;5.50;2.95;;;22.30;81.10;;;;;;5090907;23;20402;-59
2022/05/14 00:02:32;;;;;;;4.88;3.05;;;22.30;81.10;;;;;;5091038;23;20102;-59
2022/05/14 00:04:34;;;;;;;4.72;3.00;;;22.30;81.00;;;;;;5068334;23;20112;-60
2022/05/14 00:06:37;;;;;;;4.65;3.05;;;22.30;81.10;;;;;;5091907;23;21067;-60
2022/05/14 00:08:39;;;;;;;5.87;3.00;;;22.30;81.00;;;;;;5088915;23;20162;-59
2022/05/14 00:13:05;;;;;;;4.43;3.38;;;22.30;81.10;;;;;;5089707;23;20389;-60
2022/05/14 00:15:07;;;;;;;4.35;3.15;;;22.30;81.10;;;;;;5094679;23;20564;-59
2022/05/14 00:17:10;;;;;;;5.25;3.30;;;22.30;81.00;;;;;;5043701;23;20511;-57
2022/05/14 00:19:12;;;;;;;3.45;2.65;;;22.30;81.00;;;;;;5090246;23;20029;-61
2022/05/14 00:21:15;;;;;;;9.33;3.27;;;22.30;81.00;;;;;;5090509;23;20032;-58
2022/05/14 00:23:17;;;;;;;4.70;2.80;;;22.30;81.20;;;;;;5096019;23;20642;-59
2022/05/14 00:25:21;;;;;;;4.95;3.55;;;22.30;81.20;;;;;;5091709;23;21011;-61
2022/05/14 00:27:22;;;;;;;;;;;22.30;81.20;;;;;;5087498;23;20039;-59
2022/05/14 00:29:27;;;;;;;4.70;3.22;;;22.30;81.20;;;;;;5066751;23;20043;-59
2022/05/14 00:31:29;;;;;;;5.47;3.30;;;22.30;81.20;;;;;;5091885;23;20024;-59
2022/05/14 00:33:31;;;;;;;6.90;3.35;;;22.40;81.20;;;;;;5090609;23;20463;-59
2022/05/14 00:35:34;;;;;;;4.00;2.88;;;22.40;81.20;;;;;;5088665;23;20472;-59
2022/05/14 00:37:38;;;;;;;4.57;3.25;;;22.40;81.20;;;;;;5097367;23;20473;-59
2022/05/14 00:39:40;;;;;;;4.10;3.05;;;22.40;81.20;;;;;;5091993;23;20370;-61
2022/05/14 00:41:48;;;;;;;4.47;2.90;;;22.40;81.20;;;;;;5089845;23;20609;-59
2022/05/14 00:43:56;;;;;;;4.95;3.20;;;22.40;81.20;;;;;;5062727;23;20505;-59
2022/05/14 00:46:14;;;;;;;5.55;2.92;;;22.40;81.20;;;;;;5092528;23;20245;-58
2022/05/14 00:48:16;;;;;;;4.53;2.97;;;22.40;81.20;;;;;;5090058;23;20107;-59
2022/05/14 00:50:46;;;;;;;3.83;2.63;;;22.40;81.30;;;;;;5097599;23;20426;-59
2022/05/14 00:52:49;;;;;;;5.25;3.10;;;22.40;81.20;;;;;;5104406;23;20024;-59
2022/05/14 00:55:00;;;;;;;3.42;2.63;;;22.40;81.20;;;;;;5106893;23;20025;-57
2022/05/14 00:57:07;;;;;;;3.60;2.90;;;22.40;81.10;;;;;;5084945;23;20021;-59
2022/05/14 00:59:20;;;;;;;3.47;2.67;;;22.40;81.10;;;;;;5117521;23;20517;-57
2022/05/14 01:01:22;;;;;;;3.53;2.40;;;22.40;81.00;;;;;;5107035;23;20029;-58
2022/05/14 01:03:24;;;;;;;4.63;2.85;;;22.40;80.90;;;;;;5091410;23;20473;-58
2022/05/14 01:05:27;;;;;;;3.70;2.60;;;22.40;81.00;;;;;;5094193;23;20047;-59
2022/05/14 01:07:30;;;;;;;4.43;2.63;;;22.40;80.90;;;;;;5092925;23;20111;-57
2022/05/14 01:09:36;;;;;;;3.80;2.53;;;22.40;80.80;;;;;;5099238;23;20079;-58
2022/05/14 01:11:39;;;;;;;4.20;2.50;;;22.50;80.90;;;;;;5093303;23;20946;-58
2022/05/14 01:13:41;;;;;;;3.70;2.72;;;22.50;80.90;;;;;;5088173;23;20032;-58
2022/05/14 01:15:49;;;;;;;3.20;2.30;;;22.50;80.90;;;;;;5092699;23;20394;-58
2022/05/14 01:17:52;;;;;;;3.72;2.40;;;22.50;80.90;;;;;;5096920;23;20428;-60
2022/05/14 01:19:54;;;;;;;6.65;2.63;;;22.50;80.90;;;;;;5042902;23;20283;-58
2022/05/14 01:22:14;;;;;;;3.30;2.50;;;22.50;81.00;;;;;;5090291;23;20107;-57
2022/05/14 01:26:50;;;;;;;3.42;2.42;;;22.60;80.90;;;;;;5091892;23;20029;-60
2022/05/14 01:28:52;;;;;;;6.00;2.40;;;22.70;80.70;;;;;;5098815;23;20028;-58
2022/05/14 01:30:59;;;;;;;3.45;2.60;;;22.70;80.60;;;;;;5095194;23;20686;-57
2022/05/14 01:33:04;;;;;;;3.35;2.30;;;22.70;80.40;;;;;;5091837;23;20025;-59
2022/05/14 01:35:07;;;;;;;3.63;2.70;;;22.70;80.20;;;;;;5066802;23;20033;-58
2022/05/14 01:37:10;;;;;;;3.03;1.95;;;22.80;80.20;;;;;;5069387;23;20570;-61
2022/05/14 01:39:13;;;;;;;3.30;2.22;;;22.80;80.90;;;;;;5071099;23;20449;-59
2022/05/14 01:41:15;;;;;;;2.95;2.20;;;22.90;80.10;;;;;;5067761;23;20053;-59
2022/05/14 01:43:18;;;;;;;3.17;2.33;;;22.90;79.90;;;;;;5068716;23;20140;-59
2022/05/14 01:45:20;;;;;;;2.22;2.03;;;23.00;79.70;;;;;;5070473;23;20473;-59
2022/05/14 01:47:22;;;;;;;2.55;1.95;;;23.00;79.60;;;;;;5068620;23;20036;-59
2022/05/14 01:49:24;;;;;;;3.30;2.25;;;23.00;79.40;;;;;;5068858;23;20040;-59
2022/05/14 01:51:28;;;;;;;4.25;2.42;;;23.10;79.30;;;;;;5074156;23;20024;-59
2022/05/14 01:53:30;;;;;;;3.17;2.10;;;23.10;79.30;;;;;;5068407;23;20485;-59
2022/05/14 01:55:32;;;;;;;2.92;2.30;;;23.10;79.20;;;;;;5067706;23;20062;-56
2022/05/14 01:57:35;;;;;;;2.65;1.98;;;23.20;79.10;;;;;;5070709;23;20424;-58
2022/05/14 01:59:37;;;;;;;2.30;1.80;;;23.20;79.20;;;;;;5073498;23;20028;-58
2022/05/14 02:01:39;;;;;;;3.25;2.00;;;23.20;79.00;;;;;;5064621;23;20025;-59
2022/05/14 02:03:44;;;;;;;4.07;2.00;;;23.20;78.90;;;;;;5062992;23;20071;-59
2022/05/14 02:05:46;;;;;;;2.58;1.90;;;23.20;78.90;;;;;;5072506;23;20213;-57
2022/05/14 02:07:48;;;;;;;8.32;2.08;;;23.30;78.80;;;;;;5068645;23;20051;-59
2022/05/14 02:09:50;;;;;;;3.78;2.40;;;23.30;78.80;;;;;;5068738;23;20040;-57
2022/05/14 02:11:52;;;;;;;9.70;2.35;;;23.30;78.90;;;;;;5070768;23;20177;-58
2022/05/14 02:13:55;;;;;;;3.67;2.20;;;23.30;78.60;;;;;;5070581;23;20371;-60
2022/05/14 02:15:58;;;;;;;4.63;2.45;;;23.30;78.50;;;;;;5067236;23;20124;-58
2022/05/14 02:18:01;;;;;;;4.15;1.83;;;23.30;78.40;;;;;;5066583;23;20028;-57
2022/05/14 02:20:04;;;;;;;4.32;2.03;;;23.30;78.30;;;;;;5071303;23;20459;-57
2022/05/14 02:22:07;;;;;;;3.58;1.80;;;23.30;78.30;;;;;;5066619;23;20508;-57
2022/05/14 02:24:09;;;;;;;2.17;1.73;;;23.30;78.30;;;;;;5065927;23;20025;-58
2022/05/14 02:26:12;;;;;;;4.63;2.00;;;23.20;78.20;;;;;;5069042;23;20122;-57
2022/05/14 02:28:16;;;;;;;2.63;1.88;;;23.20;78.10;;;;;;5071799;23;20060;-58
2022/05/14 02:30:18;;;;;;;2.35;1.85;;;23.20;78.00;;;;;;5062632;23;20035;-59
2022/05/14 02:32:22;;;;;;;2.88;1.90;;;23.30;78.00;;;;;;5066690;23;20192;-58
2022/05/14 02:34:24;;;;;;;3.13;1.90;;;23.30;77.90;;;;;;5070695;23;20431;-59
2022/05/14 02:36:26;;;;;;;3.05;1.80;;;23.30;77.90;;;;;;5065920;23;20575;-58
2022/05/14 02:38:30;;;;;;;2.40;1.50;;;23.30;77.90;;;;;;5063987;23;20430;-58
2022/05/14 02:40:32;;;;;;;2.45;1.85;;;23.30;77.80;;;;;;5077046;23;20039;-58
2022/05/14 02:42:34;;;;;;;2.33;1.80;;;23.30;77.70;;;;;;5095844;23;20583;-58
2022/05/14 02:44:36;;;;;;;2.38;1.77;;;23.30;77.70;;;;;;5092599;23;20251;-57
2022/05/14 02:46:38;;;;;;;2.47;1.50;;;23.30;77.70;;;;;;5092930;23;20650;-58
2022/05/14 02:48:41;;;;;;;1.30;0.90;;;23.30;77.70;;;;;;5100123;23;21103;-58
2022/05/14 02:50:44;;;;;;;2.30;1.65;;;23.30;77.70;;;;;;5091703;23;20664;-58
2022/05/14 02:52:47;;;;;;;1.75;1.50;;;23.30;77.70;;;;;;5065400;23;20040;-58
2022/05/14 02:54:49;;;;;;;2.22;1.60;;;23.30;77.70;;;;;;5096649;23;20024;-58
2022/05/14 02:56:52;;;;;;;2.10;1.50;;;23.30;77.70;;;;;;5097277;23;20570;-58
2022/05/14 02:59:09;;;;;;;1.88;1.60;;;23.30;77.70;;;;;;5092892;23;20258;-58
2022/05/14 03:01:12;;;;;;;1.55;1.30;;;23.30;77.70;;;;;;5093672;23;20380;-57
2022/05/14 03:03:14;;;;;;;1.55;1.27;;;23.30;77.60;;;;;;5065033;23;20497;-58
2022/05/14 03:05:19;;;;;;;2.05;1.20;;;23.30;77.60;;;;;;5094648;23;20039;-59
2022/05/14 03:07:21;;;;;;;1.30;1.20;;;23.30;77.60;;;;;;5100217;23;20035;-58
2022/05/14 03:09:24;;;;;;;1.60;1.33;;;23.30;77.60;;;;;;5093403;23;20039;-59
2022/05/14 03:11:26;;;;;;;1.60;1.33;;;23.30;77.70;;;;;;5094541;23;20528;-58
2022/05/14 03:13:30;;;;;;;1.35;1.13;;;23.30;77.70;;;;;;5099532;23;20035;-56
2022/05/14 03:15:32;;;;;;;1.80;1.30;;;23.40;77.70;;;;;;5091761;23;20440;-57
2022/05/14 03:17:35;;;;;;;1.38;1.20;;;23.40;77.70;;;;;;5065192;23;20215;-55
2022/05/14 03:19:37;;;;;;;2.22;1.20;;;23.40;78.30;;;;;;5095216;23;20028;-57
2022/05/14 03:21:40;;;;;;;1.13;1.02;;;23.40;77.80;;;;;;5099827;23;20431;-56
2022/05/14 03:23:42;;;;;;;2.15;1.42;;;23.40;77.70;;;;;;5093872;23;20461;-56
2022/05/14 03:25:44;;;;;;;1.80;1.23;;;23.50;77.70;;;;;;5068245;23;20867;-58
2022/05/14 03:27:46;;;;;;;1.75;1.08;;;23.50;77.80;;;;;;5099723;23;20024;-57
2022/05/14 03:29:48;;;;;;;1.70;1.30;;;23.60;77.70;;;;;;5093068;23;20411;-58
2022/05/14 03:31:50;;;;;;;1.25;1.10;;;23.60;77.70;;;;;;5095640;23;20171;-58
2022/05/14 03:33:52;;;;;;;1.45;1.20;;;23.60;77.60;;;;;;5099385;23;20032;-54
2022/05/14 03:35:54;;;;;;;1.30;1.00;;;23.60;77.70;;;;;;5096020;23;20032;-58
2022/05/14 03:37:56;;;;;;;1.27;1.10;;;23.70;77.60;;;;;;5092273;23;20124;-57
2022/05/14 03:39:58;;;;;;;0.85;0.85;;;23.70;77.50;;;;;;5069189;23;20573;-57
2022/05/14 03:42:01;;;;;;;1.77;1.30;;;23.80;77.50;;;;;;5071989;23;21003;-58
2022/05/14 03:44:03;;;;;;;1.98;1.02;;;23.80;77.50;;;;;;5094377;23;20107;-58
2022/05/14 03:46:06;;;;;;;1.67;1.38;;;23.90;77.30;;;;;;5093230;23;20283;-58
2022/05/14 03:48:08;;;;;;;1.30;1.13;;;23.90;77.20;;;;;;5098594;23;20035;-58
2022/05/14 03:50:13;;;;;;;1.05;0.95;;;24.00;77.20;;;;;;5092814;23;20421;-57
2022/05/14 03:52:15;;;;;;;1.10;1.00;;;24.00;77.00;;;;;;5092660;23;20033;-58
2022/05/14 03:54:17;;;;;;;1.47;1.13;;;24.10;77.00;;;;;;5071749;23;20119;-58
2022/05/14 03:56:19;;;;;;;1.15;0.98;;;24.10;76.90;;;;;;5096045;23;20322;-58
2022/05/14 03:58:21;;;;;;;1.38;1.10;;;24.10;76.80;;;;;;5091989;23;20031;-59
2022/05/14 04:00:23;;;;;;;1.08;0.98;;;24.20;76.60;;;;;;5093218;23;20033;-58
2022/05/14 04:02:26;;;;;;;0.98;0.80;;;24.20;76.50;;;;;;5098734;23;20024;-57
2022/05/14 04:04:28;;;;;;;1.02;0.93;;;24.30;76.50;;;;;;5085595;23;20307;-56
2022/05/14 04:06:30;;;;;;;1.23;1.00;;;24.40;76.40;;;;;;5092037;23;20025;-58
2022/05/14 04:08:33;;;;;;;0.75;0.75;;;24.40;76.20;;;;;;5097007;23;20399;-59
2022/05/14 04:10:35;;;;;;;1.38;1.10;;;24.50;76.10;;;;;;5091735;23;20537;-59
2022/05/14 04:12:38;;;;;;;1.50;1.07;;;24.50;76.10;;;;;;5091973;23;20032;-58
2022/05/14 04:14:40;;;;;;;1.33;1.10;;;24.50;76.00;;;;;;5095133;23;20526;-59
2022/05/14 04:16:42;;;;;;;0.85;0.80;;;24.60;75.90;;;;;;5068337;23;20527;-58
2022/05/14 04:18:45;;;;;;;1.08;0.98;;;24.60;75.80;;;;;;5092254;23;20032;-58
2022/05/14 04:20:47;;;;;;;1.25;1.10;;;24.70;75.70;;;;;;5091358;23;20166;-59
2022/05/14 04:22:50;;;;;;;1.45;1.00;;;24.70;75.60;;;;;;5097159;23;20028;-58
2022/05/14 04:24:52;;;;;;;1.00;0.80;;;24.80;75.50;;;;;;5062980;23;20036;-59
2022/05/14 04:26:55;;;;;;;1.30;1.10;;;24.80;75.40;;;;;;5090532;23;20032;-59
2022/05/14 04:28:57;;;;;;;1.07;0.80;;;24.90;75.20;;;;;;5098298;23;20082;-59
2022/05/14 04:30:59;;;;;;;0.70;0.70;;;25.00;75.20;;;;;;5093195;23;20798;-59
2022/05/14 04:33:01;;;;;;;1.10;1.00;;;25.00;75.00;;;;;;5064090;23;20028;-59
2022/05/14 04:35:04;;;;;;;1.05;0.95;;;25.10;74.90;;;;;;5066925;23;20458;-60
2022/05/14 04:37:06;;;;;;;1.08;0.88;;;25.10;74.70;;;;;;5046955;23;20160;-60
2022/05/14 04:39:09;;;;;;;1.27;1.10;;;25.20;74.70;;;;;;5094924;23;20572;-59
2022/05/14 04:41:11;;;;;;;;;;;25.30;74.60;;;;;;5095373;23;20055;-60
2022/05/14 04:43:14;;;;;;;1.08;0.93;;;25.30;75.10;;;;;;5100368;23;20244;-59
2022/05/14 04:45:16;;;;;;;1.50;1.10;;;25.40;74.40;;;;;;5071439;23;20402;-59
2022/05/14 04:47:18;;;;;;;1.35;1.00;;;25.40;74.30;;;;;;5095999;23;20426;-59
2022/05/14 04:49:21;;;;;;;2.60;1.23;;;25.50;74.20;;;;;;5100225;23;20028;-58
2022/05/14 04:51:23;;;;;;;0.98;0.90;;;25.50;74.20;;;;;;5100083;23;20047;-58
2022/05/14 04:53:25;;;;;;;1.23;0.90;;;25.50;74.10;;;;;;5070553;23;20516;-59
2022/05/14 04:55:27;;;;;;;1.05;0.95;;;25.60;74.10;;;;;;5095908;23;20485;-59
2022/05/14 04:57:29;;;;;;;0.98;0.88;;;25.60;74.00;;;;;;5103481;23;20031;-58
2022/05/14 04:59:32;;;;;;;1.10;1.00;;;25.70;73.90;;;;;;5101615;23;20361;-61
2022/05/14 05:01:34;;;;;;;1.15;0.90;;;25.70;73.90;;;;;;5102648;23;20321;-58
2022/05/14 05:03:36;;;;;;;1.17;1.07;;;25.80;73.80;;;;;;5107819;23;20313;-58
2022/05/14 05:05:38;;;;;;;1.45;1.23;;;25.80;73.70;;;;;;5098857;23;20261;-59
2022/05/14 05:07:41;;;;;;;1.20;0.90;;;25.90;73.60;;;;;;5098929;23;20024;-58
2022/05/14 05:09:43;;;;;;;1.33;1.00;;;25.90;73.50;;;;;;5077771;23;20025;-59
2022/05/14 05:11:45;;;;;;;1.83;1.08;;;26.00;73.50;;;;;;5081202;23;20277;-58
2022/05/14 05:13:47;;;;;;;1.02;1.00;;;26.00;73.40;;;;;;5107728;23;20126;-59
2022/05/14 05:15:51;;;;;;;1.20;1.10;;;26.10;73.40;;;;;;5110865;23;20409;-59
2022/05/14 05:17:53;;;;;;;1.27;1.15;;;26.10;73.40;;;;;;5113200;23;20032;-59
2022/05/14 05:19:55;;;;;;;1.67;1.03;;;26.10;73.20;;;;;;5113608;23;20048;-59
2022/05/14 05:21:58;;;;;;;1.08;0.98;;;26.10;73.20;;;;;;5107042;23;20161;-59
2022/05/14 05:24:01;;;;;;;1.27;1.05;;;26.20;73.20;;;;;;5109537;23;20078;-59
2022/05/14 05:26:04;;;;;;;1.48;1.10;;;26.20;73.20;;;;;;5075286;23;20021;-59
2022/05/14 05:28:06;;;;;;;;;;;26.20;73.20;;;;;;5097245;23;20573;-59
2022/05/14 05:30:09;;;;;;;1.08;0.98;;;26.20;73.10;;;;;;5101372;23;20164;-58
2022/05/14 05:32:11;;;;;;;1.33;1.10;;;26.20;73.00;;;;;;5105996;23;20808;-58
2022/05/14 05:34:13;;;;;;;1.98;1.25;;;26.20;72.90;;;;;;5093726;23;20774;-58
2022/05/14 05:36:15;;;;;;;1.30;1.10;;;26.20;73.00;;;;;;5094585;23;20025;-58
2022/05/14 05:38:18;;;;;;;1.50;1.40;;;26.20;73.10;;;;;;5099622;23;20099;-58
2022/05/14 05:40:20;;;;;;;1.95;1.35;;;26.10;73.30;;;;;;5095027;23;20282;-58
2022/05/14 05:42:22;;;;;;;2.22;1.40;;;26.10;73.40;;;;;;5065402;23;20637;-58
2022/05/14 05:44:27;;;;;;;2.80;1.40;;;26.10;73.70;;;;;;5070635;23;20330;-59
2022/05/14 05:46:31;;;;;;;2.15;1.42;;;26.00;73.70;;;;;;5071669;23;20131;-58
2022/05/14 05:48:33;;;;;;;2.63;1.13;;;26.00;73.70;;;;;;5092769;23;20028;-58
2022/05/14 05:50:38;;;;;;;1.65;1.33;;;26.00;73.80;;;;;;5093349;23;20028;-58
2022/05/14 05:52:40;;;;;;;2.40;1.42;;;26.00;73.90;;;;;;5070711;23;20096;-58
2022/05/14 05:57:04;;;;;;;2.17;1.42;;;25.90;73.90;;;;;;5099946;23;20373;-58
2022/05/14 05:59:07;;;;;;;1.50;0.98;;;25.90;74.00;;;;;;5096815;23;20909;-58
2022/05/14 06:01:08;;;;;;;;;;;25.90;74.00;;;;;;5093942;23;20349;-59
2022/05/14 06:03:11;;;;;;;2.30;1.38;;;25.90;74.70;;;;;;5094999;23;19919;-58
2022/05/14 06:05:15;;;;;;;2.35;1.55;;;25.90;74.10;;;;;;5097929;23;20578;-59
2022/05/14 06:07:17;;;;;;;2.25;1.48;;;25.90;74.20;;;;;;5092981;23;20028;-59
2022/05/14 06:09:24;;;;;;;1.35;1.25;;;25.90;74.30;;;;;;5062263;23;20036;-58
2022/05/14 06:11:26;;;;;;;1.83;1.40;;;25.90;74.30;;;;;;5065851;23;20099;-59
2022/05/14 06:13:28;;;;;;;1.73;1.17;;;25.80;74.20;;;;;;5097195;23;20481;-59
2022/05/14 06:15:31;;;;;;;1.97;1.30;;;25.80;74.20;;;;;;5090794;23;20039;-59
2022/05/14 06:17:33;;;;;;;1.45;1.30;;;25.80;74.20;;;;;;5062837;23;20025;-58
2022/05/14 06:19:35;;;;;;;1.88;1.40;;;25.80;74.20;;;;;;5098456;23;20828;-59
2022/05/14 06:21:38;;;;;;;2.13;1.38;;;25.80;74.30;;;;;;5091879;23;20051;-59
2022/05/14 06:23:40;;;;;;;2.72;1.70;;;25.90;74.30;;;;;;5090651;23;20620;-58
2022/05/14 06:25:43;;;;;;;1.53;1.10;;;25.90;74.30;;;;;;5094500;23;20048;-59
2022/05/14 06:27:45;;;;;;;1.38;1.15;;;25.90;74.20;;;;;;5094645;23;20106;-59
2022/05/14 06:29:47;;;;;;;2.38;1.40;;;25.90;74.20;;;;;;5089166;23;20032;-59
2022/05/14 06:31:49;;;;;;;2.43;1.33;;;25.90;74.20;;;;;;5062629;23;20053;-58
2022/05/14 06:33:52;;;;;;;1.55;1.23;;;25.90;74.20;;;;;;5095499;23;20048;-59
2022/05/14 06:35:54;;;;;;;1.95;1.30;;;25.90;74.20;;;;;;5088978;23;20159;-59
2022/05/14 06:37:57;;;;;;;2.13;1.42;;;25.90;74.20;;;;;;5089645;23;20025;-58
2022/05/14 06:39:59;;;;;;;1.52;1.23;;;25.90;74.20;;;;;;5092326;23;20056;-58
2022/05/14 06:42:01;;;;;;;2.20;1.48;;;25.90;74.00;;;;;;5088591;23;20024;-59
2022/05/14 06:44:03;;;;;;;1.63;1.27;;;25.90;74.00;;;;;;5061637;23;20219;-58
2022/05/14 06:46:06;;;;;;;2.07;1.40;;;25.90;73.90;;;;;;5093351;23;20539;-59
2022/05/14 06:48:08;;;;;;;1.38;1.20;;;25.90;74.20;;;;;;5066907;23;20275;-59
2022/05/14 06:50:11;;;;;;;2.77;1.80;;;25.80;74.20;;;;;;5088704;23;20107;-59
2022/05/14 06:52:17;;;;;;;3.53;1.45;;;25.80;74.40;;;;;;5091063;23;20708;-59
2022/05/14 06:54:20;;;;;;;2.80;1.52;;;25.80;74.60;;;;;;5094798;23;20117;-60
2022/05/14 06:56:27;;;;;;;2.42;1.30;;;25.70;74.60;;;;;;5089436;23;20498;-60
2022/05/14 06:58:35;;;;;;;2.28;1.13;;;25.70;74.80;;;;;;5064481;23;20327;-59
2022/05/14 07:00:37;;;;;;;2.08;1.50;;;25.70;75.00;;;;;;5063916;23;20476;-58
2022/05/14 07:02:41;;;;;;;2.28;1.48;;;25.70;75.10;;;;;;5093349;23;20065;-59
2022/05/14 07:07:08;;;;;;;3.40;1.63;;;25.60;75.20;;;;;;5063491;23;20029;-59
2022/05/14 07:09:19;;;;;;;4.53;1.52;;;25.60;75.30;;;;;;5070830;23;20032;-59
2022/05/14 07:11:21;;;;;;;2.42;1.70;;;25.60;75.40;;;;;;5070926;23;20674;-59
2022/05/14 07:13:23;;;;;;;2.33;1.25;;;25.60;75.50;;;;;;5090128;23;20028;-59
2022/05/14 07:15:25;;;;;;;3.28;1.85;;;25.50;75.50;;;;;;5085555;23;20041;-59
2022/05/14 07:17:27;;;;;;;2.03;1.50;;;25.50;75.60;;;;;;5095471;23;20024;-59
2022/05/14 07:19:30;;;;;;;4.93;2.33;;;25.50;75.70;;;;;;5084786;23;20319;-59
2022/05/14 07:21:34;;;;;;;2.30;1.60;;;25.50;75.70;;;;;;5057161;23;20479;-59
2022/05/14 07:23:36;;;;;;;2.60;1.60;;;25.50;75.80;;;;;;5082580;23;20036;-59
2022/05/14 07:25:38;;;;;;;3.47;1.47;;;25.50;75.90;;;;;;5033341;23;20684;-59
2022/05/14 07:27:40;;;;;;;2.88;1.50;;;25.40;75.80;;;;;;5057530;23;20025;-59
2022/05/14 07:29:44;;;;;;;1.85;1.45;;;25.40;75.80;;;;;;5085184;23;20464;-59
2022/05/14 07:31:47;;;;;;;2.83;1.50;;;25.40;76.00;;;;;;5088855;23;20077;-59
2022/05/14 07:33:51;;;;;;;4.50;1.75;;;25.40;76.00;;;;;;5087091;23;20365;-60
2022/05/14 07:35:53;;;;;;;2.65;1.35;;;25.40;76.00;;;;;;5055376;23;20096;-59
2022/05/14 07:37:57;;;;;;;3.30;1.92;;;25.40;76.00;;;;;;5086589;23;20028;-59
2022/05/14 07:40:05;;;;;;;2.90;1.40;;;25.40;76.10;;;;;;5091529;23;20412;-60
2022/05/14 07:42:17;;;;;;;1.90;1.40;;;25.40;76.20;;;;;;5063693;23;20021;-59
2022/05/14 07:44:23;;;;;;;2.20;1.60;;;25.40;76.30;;;;;;5064783;23;20025;-59
2022/05/14 07:46:30;;;;;;;1.70;1.27;;;25.40;76.30;;;;;;5057666;23;20107;-60
2022/05/14 07:48:37;;;;;;;2.45;1.58;;;25.30;76.20;;;;;;5060239;23;20029;-58
2022/05/14 07:50:40;;;;;;;2.33;1.23;;;25.30;76.30;;;;;;5058313;23;20414;-59
2022/05/14 07:52:43;;;;;;;2.05;1.20;;;25.40;76.40;;;;;;5063838;23;20123;-59
2022/05/14 07:54:45;;;;;;;2.78;1.63;;;25.30;76.40;;;;;;5061793;23;20468;-59
2022/05/14 07:56:47;;;;;;;3.47;1.30;;;25.30;76.40;;;;;;5059764;23;20560;-59
2022/05/14 07:58:49;;;;;;;3.15;1.35;;;25.30;76.50;;;;;;5062963;23;20210;-60
2022/05/14 08:00:52;;;;;;;2.90;1.50;;;25.30;76.50;;;;;;5065436;23;20028;-60
2022/05/14 08:02:54;;;;;;;1.98;1.30;;;25.30;76.60;;;;;;5060189;23;20363;-59
2022/05/14 08:04:56;;;;;;;1.65;1.33;;;25.30;76.60;;;;;;5060582;23;20056;-59
2022/05/14 08:06:58;;;;;;;4.22;1.40;;;25.30;76.60;;;;;;5065882;23;20461;-59
2022/05/14 08:09:01;;;;;;;2.23;1.60;;;25.20;76.50;;;;;;5062076;23;20366;-59
2022/05/14 08:11:03;;;;;;;1.50;1.17;;;25.30;76.60;;;;;;5061562;23;20076;-59
2022/05/14 08:13:05;;;;;;;2.33;1.13;;;25.20;76.60;;;;;;5069104;23;20391;-59
2022/05/14 08:15:09;;;;;;;1.92;1.42;;;25.30;76.70;;;;;;5065475;23;20876;-59
2022/05/14 08:17:12;;;;;;;1.48;1.10;;;25.20;76.70;;;;;;5065545;23;20028;-59
2022/05/14 08:19:14;;;;;;;1.50;1.08;;;25.20;76.70;;;;;;5065725;23;20379;-59
2022/05/14 08:25:59;;;;;;;2.47;1.60;;;25.20;76.80;;;;;;5037181;23;20416;-59
2022/05/14 08:28:02;;;;;;;2.90;1.40;;;25.20;76.90;;;;;;5063106;23;20044;-58
2022/05/14 08:30:04;;;;;;;1.57;1.10;;;25.20;77.00;;;;;;5043097;23;20375;-60
2022/05/14 08:32:07;;;;;;;1.70;1.20;;;25.20;77.00;;;;;;5068595;23;20656;-60
2022/05/14 08:34:10;;;;;;;2.55;1.40;;;25.10;76.90;;;;;;5068623;23;20107;-60
2022/05/14 08:36:12;;;;;;;1.98;1.30;;;25.10;76.90;;;;;;5074451;23;20505;-59
2022/05/14 08:38:17;;;;;;;2.28;1.45;;;25.10;77.00;;;;;;5043990;23;20329;-60
2022/05/14 08:40:25;;;;;;;1.88;1.20;;;25.10;77.00;;;;;;5069943;23;20032;-59
2022/05/14 08:42:30;;;;;;;3.28;1.60;;;25.10;77.00;;;;;;5089521;23;20345;-60
2022/05/14 08:44:34;;;;;;;2.50;1.35;;;25.10;77.10;;;;;;5065663;23;20024;-60
2022/05/14 08:46:40;;;;;;;3.42;1.50;;;25.10;77.20;;;;;;5095465;23;20163;-60
2022/05/14 08:48:43;;;;;;;2.60;1.33;;;25.10;77.20;;;;;;5095169;23;20087;-60
2022/05/14 08:51:01;;;;;;;1.30;1.20;;;25.10;77.30;;;;;;5091951;23;20033;-59
2022/05/14 08:53:07;;;;;;;2.35;1.27;;;25.10;77.30;;;;;;5065651;23;20084;-60
2022/05/14 08:55:18;;;;;;;1.63;1.20;;;25.10;77.30;;;;;;5093572;23;20114;-60
2022/05/14 08:57:43;;;;;;;1.75;1.30;;;25.10;77.30;;;;;;5092744;23;20024;-58
2022/05/14 08:59:59;;;;;;;2.13;1.40;;;25.10;77.30;;;;;;5098579;23;20218;-59
2022/05/14 09:02:14;;;;;;;1.73;1.30;;;25.10;77.30;;;;;;5099429;23;20032;-59
2022/05/14 09:04:18;;;;;;;1.90;1.20;;;25.00;77.30;;;;;;5097476;23;20803;-58
2022/05/14 09:06:20;;;;;;;2.78;1.48;;;25.10;77.40;;;;;;5094559;23;20492;-59
2022/05/14 09:08:23;;;;;;;1.58;1.17;;;25.10;77.40;;;;;;5094054;23;20029;-59
2022/05/14 09:10:35;;;;;;;2.15;1.33;;;25.00;77.30;;;;;;5067107;23;20028;-60
2022/05/14 09:13:00;;;;;;;1.90;1.60;;;25.00;77.40;;;;;;5095191;23;20071;-59
2022/05/14 09:15:12;;;;;;;2.15;1.38;;;25.00;77.40;;;;;;5066048;23;20029;-59
2022/05/14 09:17:21;;;;;;;2.22;1.30;;;25.00;77.40;;;;;;5091075;23;20623;-60
2022/05/14 09:19:27;;;;;;;2.33;1.50;;;25.00;77.40;;;;;;5092460;23;20416;-59
2022/05/14 09:21:38;;;;;;;1.58;1.17;;;25.00;77.40;;;;;;5092836;23;20530;-59
2022/05/14 09:23:46;;;;;;;2.05;1.30;;;25.00;77.40;;;;;;5092538;23;20483;-59
2022/05/14 09:25:48;;;;;;;2.10;1.30;;;25.00;77.40;;;;;;5094626;23;20520;-60
2022/05/14 09:28:26;;;;;;;2.10;1.48;;;25.00;77.40;;;;;;5095959;23;20028;-59
2022/05/14 09:30:39;;;;;;;2.00;1.30;;;25.00;77.30;;;;;;5059118;23;20063;-59
2022/05/14 09:32:45;;;;;;;1.40;1.10;;;25.00;77.40;;;;;;5094177;23;20103;-59
2022/05/14 09:34:49;;;;;;;2.15;1.48;;;25.00;77.40;;;;;;5092759;23;20039;-58
2022/05/14 09:36:51;;;;;;;1.77;1.27;;;25.00;77.40;;;;;;5103651;23;20052;-59
2022/05/14 09:39:10;;;;;;;2.75;1.65;;;25.00;77.50;;;;;;5065058;23;20014;-59
2022/05/14 09:41:25;;;;;;;2.40;1.35;;;25.00;77.50;;;;;;5109614;23;20547;-59
2022/05/14 09:43:37;;;;;;;2.40;1.50;;;25.00;77.50;;;;;;5105119;23;20025;-59
2022/05/14 09:45:56;;;;;;;2.90;1.40;;;25.00;77.50;;;;;;5105922;23;20129;-59
2022/05/14 09:48:19;;;;;;;1.65;1.30;;;25.00;77.60;;;;;;5098042;23;20047;-59
2022/05/14 09:50:30;;;;;;;2.75;1.33;;;24.90;77.50;;;;;;5092428;23;20059;-59
2022/05/14 09:52:35;;;;;;;2.13;1.42;;;24.90;77.50;;;;;;5089424;23;20035;-59
2022/05/14 09:54:47;;;;;;;2.25;1.48;;;25.00;77.50;;;;;;5091622;23;20443;-60
2022/05/14 09:56:58;;;;;;;3.85;1.80;;;24.90;77.50;;;;;;5091310;23;20024;-59
2022/05/14 09:59:32;;;;;;;2.58;1.58;;;24.90;77.50;;;;;;5091798;23;20464;-59
2022/05/14 10:01:36;;;;;;;;;;;24.90;77.50;;;;;;5098193;23;20059;-59
2022/05/14 10:04:03;;;;;;;3.10;1.70;;;25.00;77.60;;;;;;5095778;23;20446;-59
2022/05/14 10:06:27;;;;;;;2.55;1.63;;;24.90;77.50;;;;;;5061991;23;20035;-60
2022/05/14 10:08:47;;;;;;;2.42;1.60;;;24.90;77.50;;;;;;5062802;23;20024;-60
2022/05/14 10:10:52;;;;;;;3.35;1.75;;;24.90;77.50;;;;;;5094124;23;20528;-60
2022/05/14 10:13:35;;;;;;;3.22;1.55;;;24.90;77.50;;;;;;5092518;23;20039;-60
2022/05/14 10:15:44;;;;;;;1.55;1.35;;;24.90;77.60;;;;;;5018589;23;20773;-60
2022/05/14 10:17:59;;;;;;;1.83;1.30;;;24.90;77.50;;;;;;5092191;23;20083;-60
2022/05/14 10:20:29;;;;;;;2.53;1.70;;;24.90;77.50;;;;;;5089500;23;20032;-60
2022/05/14 10:28:57;;;;;;;2.08;1.50;;;24.90;77.60;;;;;;5098415;23;20028;-60
2022/05/14 10:31:06;;;;;;;2.47;1.70;;;24.80;77.60;;;;;;5067059;23;20025;-60
2022/05/14 10:33:17;;;;;;;3.42;1.90;;;24.80;77.60;;;;;;5092274;23;20460;-59
2022/05/14 10:35:28;;;;;;;2.13;1.67;;;24.80;77.60;;;;;;5090924;23;20369;-61
2022/05/14 10:37:32;;;;;;;2.83;1.80;;;24.80;77.70;;;;;;5092259;23;20859;-60
2022/05/14 10:39:59;;;;;;;3.28;1.95;;;24.80;77.70;;;;;;5098873;23;20036;-60
2022/05/14 10:42:25;;;;;;;2.22;1.80;;;24.80;77.70;;;;;;5090025;23;20135;-60
2022/05/14 10:45:03;;;;;;;2.33;1.50;;;24.80;77.80;;;;;;5096825;23;20273;-60
2022/05/14 10:47:10;;;;;;;2.92;2.00;;;24.80;77.80;;;;;;5090920;23;20142;-60
2022/05/14 10:49:20;;;;;;;2.50;1.90;;;24.80;77.80;;;;;;5090365;23;20115;-60
2022/05/14 10:51:30;;;;;;;3.55;1.85;;;24.80;77.90;;;;;;5090863;23;20091;-60
2022/05/14 10:53:34;;;;;;;3.97;1.88;;;24.80;77.90;;;;;;5064953;23;20033;-59
2022/05/14 10:56:03;;;;;;;2.75;1.90;;;24.80;77.90;;;;;;5091464;23;20029;-59
2022/05/14 10:58:10;;;;;;;3.33;2.05;;;24.70;77.90;;;;;;5092916;23;20534;-60
2022/05/14 11:00:23;;;;;;;2.95;2.30;;;24.70;77.90;;;;;;5090202;23;20052;-60
2022/05/14 11:02:32;;;;;;;3.85;2.10;;;24.70;77.90;;;;;;5089750;23;20029;-59
2022/05/14 11:04:54;;;;;;;2.60;2.08;;;24.70;78.00;;;;;;5089395;23;20052;-60
2022/05/14 11:06:59;;;;;;;2.60;1.55;;;24.70;78.00;;;;;;5093750;23;20296;-60
2022/05/14 11:09:35;;;;;;;3.55;2.33;;;24.70;78.00;;;;;;5065083;23;20040;-60
2022/05/14 11:11:52;;;;;;;2.42;1.90;;;24.70;78.00;;;;;;5090372;23;20083;-60
2022/05/14 11:14:06;;;;;;;4.43;2.42;;;24.60;78.00;;;;;;5091453;23;20091;-60